Time;durP1;ratioP1;P1;durP2;ratioP2;P2;SDS_P1;SDS_P2;PMS_P1;PMS_P2;Temp;Humidity;BMP_temperature;BMP_pressure;BME280_temperature;BME280_humidity;BME280_pressure;Samples;Min_cycle;Max_cycle;Signal;HPM_P1;HPM_P2
2022/11/17 00:01:55;;;;;;;0.00;0.00;;;15.30;92.50;;;;;;4244065;27;20106;-60
2022/11/17 00:04:36;;;;;;;0.32;0.32;;;15.30;92.40;;;;;;4241448;27;20100;-60
2022/11/17 00:07:18;;;;;;;0.30;0.30;;;15.30;92.50;;;;;;4243436;27;20078;-60
2022/11/17 00:09:59;;;;;;;0.47;0.47;;;15.30;92.60;;;;;;4242369;27;20082;-60
2022/11/17 00:15:37;;;;;;;0.00;0.00;;;15.20;92.40;;;;;;4242677;27;20153;-60
2022/11/17 00:21:22;;;;;;;0.00;0.00;;;15.20;92.30;;;;;;4242409;27;20050;-60
2022/11/17 00:24:05;;;;;;;0.30;0.30;;;15.20;92.30;;;;;;4226115;28;20413;-59
2022/11/17 00:29:15;;;;;;;0.43;0.43;;;15.20;92.40;;;;;;4206850;27;20887;-60
2022/11/17 00:34:54;;;;;;;0.22;0.22;;;15.20;92.60;;;;;;4190067;28;20057;-60
2022/11/17 00:37:37;;;;;;;1.50;1.40;;;15.20;92.50;;;;;;4188222;27;20125;-59
2022/11/17 00:40:18;;;;;;;0.00;0.00;;;15.10;92.50;;;;;;4222505;27;20051;-59
2022/11/17 00:42:58;;;;;;;1.00;1.00;;;15.10;92.70;;;;;;4206146;28;20059;-60
2022/11/17 00:45:40;;;;;;;0.52;0.52;;;15.10;92.80;;;;;;4206541;27;20133;-59
2022/11/17 00:48:21;;;;;;;1.63;1.10;;;15.10;92.80;;;;;;4189671;28;20110;-59
2022/11/17 00:51:03;;;;;;;0.08;0.08;;;15.10;92.60;;;;;;4203021;28;20730;-59
2022/11/17 00:53:44;;;;;;;0.17;0.17;;;15.10;92.60;;;;;;4206631;28;20502;-59
2022/11/17 00:56:26;;;;;;;0.00;0.00;;;15.10;92.70;;;;;;4181730;27;20070;-59
2022/11/17 00:59:07;;;;;;;0.00;0.00;;;15.00;92.60;;;;;;4223031;27;20185;-59
2022/11/17 01:01:49;;;;;;;0.10;0.10;;;15.10;92.70;;;;;;4223298;27;20051;-59
2022/11/17 01:04:30;;;;;;;0.00;0.00;;;15.10;92.60;;;;;;4222720;27;20185;-60
2022/11/17 01:07:11;;;;;;;0.00;0.00;;;15.10;92.60;;;;;;4222830;27;20627;-59
2022/11/17 01:09:52;;;;;;;0.13;0.13;;;15.00;92.70;;;;;;4216183;27;20052;-60
2022/11/17 01:12:33;;;;;;;0.20;0.20;;;15.00;92.50;;;;;;4208726;27;20055;-59
2022/11/17 01:15:14;;;;;;;0.00;0.00;;;15.00;92.50;;;;;;4222809;27;20051;-59
2022/11/17 01:17:56;;;;;;;0.00;0.00;;;15.00;92.60;;;;;;4222694;27;20510;-59
2022/11/17 01:20:37;;;;;;;0.00;0.00;;;15.00;92.70;;;;;;4222150;27;20050;-59
2022/11/17 01:23:18;;;;;;;0.00;0.00;;;15.00;92.40;;;;;;4222725;27;20055;-59
2022/11/17 01:26:07;;;;;;;3.05;1.50;;;15.00;92.50;;;;;;4222872;27;20556;-59
2022/11/17 01:28:48;;;;;;;0.17;0.17;;;15.00;92.40;;;;;;4205286;28;20082;-59
2022/11/17 01:31:30;;;;;;;;;;;15.00;92.60;;;;;;4173006;28;20151;-60
2022/11/17 01:34:12;;;;;;;1.60;1.02;;;15.00;92.00;;;;;;4182739;28;19947;-60
2022/11/17 01:39:51;;;;;;;0.00;0.00;;;14.90;92.50;;;;;;4202118;28;20051;-58
2022/11/17 01:42:32;;;;;;;1.17;1.10;;;14.90;92.60;;;;;;4177675;28;20128;-60
2022/11/17 01:45:19;;;;;;;0.00;0.00;;;14.90;92.50;;;;;;4177657;28;20044;-60
2022/11/17 01:48:03;;;;;;;0.00;0.00;;;14.90;92.50;;;;;;4189576;28;20282;-59
2022/11/17 01:50:48;;;;;;;0.03;0.03;;;14.90;92.90;;;;;;4192965;28;20083;-59
2022/11/17 01:53:32;;;;;;;1.63;1.55;;;14.90;92.40;;;;;;4194245;28;20137;-58
2022/11/17 01:56:18;;;;;;;0.00;0.00;;;14.90;92.40;;;;;;4194456;28;20507;-59
2022/11/17 01:59:05;;;;;;;0.10;0.10;;;14.90;92.40;;;;;;4198792;28;20077;-59
2022/11/17 02:01:55;;;;;;;0.08;0.08;;;14.80;92.50;;;;;;4210906;28;20098;-59
2022/11/17 02:04:38;;;;;;;0.05;0.05;;;14.90;92.30;;;;;;4208507;28;20059;-59
2022/11/17 02:07:25;;;;;;;3.10;1.55;;;14.90;92.20;;;;;;4194008;28;20051;-59
2022/11/17 02:10:07;;;;;;;0.00;0.00;;;14.90;92.70;;;;;;4194129;28;20051;-59
2022/11/17 02:12:48;;;;;;;0.00;0.00;;;14.80;92.30;;;;;;4193903;28;20173;-59
2022/11/17 02:15:30;;;;;;;0.90;0.90;;;14.80;92.30;;;;;;4194396;28;20059;-60
2022/11/17 02:18:11;;;;;;;1.20;1.10;;;14.80;92.30;;;;;;4202733;28;20206;-60
2022/11/17 02:21:07;;;;;;;0.00;0.00;;;14.80;92.30;;;;;;4193637;28;20054;-59
2022/11/17 02:24:30;;;;;;;0.00;0.00;;;14.80;92.40;;;;;;4193565;28;20521;-59
2022/11/17 02:27:47;;;;;;;0.00;0.00;;;14.80;92.20;;;;;;4193855;28;20187;-59
2022/11/17 02:30:34;;;;;;;0.00;0.00;;;14.80;92.30;;;;;;4193783;28;20523;-59
2022/11/17 02:33:21;;;;;;;0.10;0.10;;;14.80;92.30;;;;;;4193567;28;20056;-59
2022/11/17 02:36:08;;;;;;;0.10;0.10;;;14.80;92.10;;;;;;4201126;28;20070;-59
2022/11/17 02:38:57;;;;;;;0.28;0.28;;;14.80;92.70;;;;;;4209230;28;20047;-59
2022/11/17 02:41:45;;;;;;;0.10;0.10;;;14.80;92.50;;;;;;4200366;28;20059;-59
2022/11/17 02:44:35;;;;;;;0.25;0.25;;;14.70;92.20;;;;;;4192988;28;20055;-59
2022/11/17 02:47:20;;;;;;;0.00;0.00;;;14.70;91.90;;;;;;4177420;28;20075;-59
2022/11/17 02:50:05;;;;;;;0.73;0.73;;;14.70;91.90;;;;;;4193770;28;20051;-59
2022/11/17 02:52:46;;;;;;;0.00;0.00;;;14.70;92.10;;;;;;4176402;28;20527;-59
2022/11/17 02:55:32;;;;;;;0.08;0.08;;;14.70;92.20;;;;;;4182000;28;20094;-59
2022/11/17 02:58:12;;;;;;;0.00;0.00;;;14.70;92.20;;;;;;4209830;28;20046;-59
2022/11/17 03:01:22;;;;;;;0.13;0.13;;;14.70;92.00;;;;;;4210083;28;20208;-59
2022/11/17 03:04:19;;;;;;;0.30;0.30;;;14.70;92.00;;;;;;4209729;28;20128;-59
2022/11/17 03:07:13;;;;;;;0.00;0.00;;;14.70;92.00;;;;;;4176351;28;20059;-59
2022/11/17 03:10:04;;;;;;;1.00;0.95;;;14.70;92.00;;;;;;4176686;28;20094;-59
2022/11/17 03:12:52;;;;;;;0.00;0.00;;;14.70;92.20;;;;;;4176558;28;20052;-59
2022/11/17 03:15:43;;;;;;;0.00;0.00;;;14.70;92.00;;;;;;4185752;28;20059;-60
2022/11/17 03:18:30;;;;;;;0.03;0.03;;;14.70;92.20;;;;;;4209418;28;20062;-60
2022/11/17 03:21:20;;;;;;;1.05;1.05;;;14.70;92.20;;;;;;4208127;28;20185;-60
2022/11/17 03:24:05;;;;;;;0.00;0.00;;;14.70;92.20;;;;;;4209827;28;20889;-60
2022/11/17 03:26:51;;;;;;;0.45;0.45;;;14.70;91.90;;;;;;4188129;28;20514;-59
2022/11/17 03:29:35;;;;;;;0.00;0.00;;;14.70;92.20;;;;;;4192725;28;20407;-60
2022/11/17 03:32:17;;;;;;;0.00;0.00;;;14.60;92.10;;;;;;4192271;28;20097;-60
2022/11/17 03:35:04;;;;;;;0.10;0.10;;;14.60;92.40;;;;;;4202154;28;20051;-60
2022/11/17 03:37:49;;;;;;;0.00;0.00;;;14.70;92.30;;;;;;4209218;28;20069;-59
2022/11/17 03:40:34;;;;;;;3.63;1.15;;;14.60;92.40;;;;;;4209309;28;20069;-60
2022/11/17 03:43:18;;;;;;;0.10;0.10;;;14.60;92.40;;;;;;4192029;28;20055;-59
2022/11/17 03:46:05;;;;;;;1.85;0.40;;;14.60;92.40;;;;;;4175944;28;20059;-60
2022/11/17 03:48:50;;;;;;;0.32;0.32;;;14.60;92.50;;;;;;4176001;28;20114;-59
2022/11/17 03:51:32;;;;;;;0.00;0.00;;;14.60;92.40;;;;;;4174660;28;20052;-60
2022/11/17 03:54:14;;;;;;;0.25;0.25;;;14.70;92.70;;;;;;4182870;28;20055;-59
2022/11/17 03:57:00;;;;;;;0.00;0.00;;;14.70;92.60;;;;;;4209003;28;20166;-60
2022/11/17 03:59:49;;;;;;;0.00;0.00;;;14.80;92.40;;;;;;4209173;28;20181;-60
2022/11/17 04:02:30;;;;;;;0.00;0.00;;;14.90;92.30;;;;;;4192354;28;20059;-59
2022/11/17 04:05:14;;;;;;;0.38;0.38;;;14.90;92.30;;;;;;4192108;28;20047;-59
2022/11/17 04:07:55;;;;;;;0.00;0.00;;;14.90;92.20;;;;;;4192496;28;20117;-59
2022/11/17 04:15:55;;;;;;;0.05;0.05;;;14.90;92.20;;;;;;4192314;28;20093;-59
2022/11/17 04:16:36;;;;;;;0.00;0.00;;;15.00;92.10;;;;;;4208490;28;19976;-59
2022/11/17 04:19:17;;;;;;;2.20;2.00;;;15.00;92.10;;;;;;4198481;28;20063;-59
2022/11/17 04:21:58;;;;;;;0.00;0.00;;;15.00;92.10;;;;;;4192201;28;20047;-59
2022/11/17 04:24:40;;;;;;;0.00;0.00;;;15.00;92.40;;;;;;4175764;28;20056;-60
2022/11/17 04:30:19;;;;;;;0.00;0.00;;;15.10;92.30;;;;;;4175099;28;20139;-60
2022/11/17 04:33:00;;;;;;;0.00;0.00;;;15.10;91.90;;;;;;4188816;28;20042;-58
2022/11/17 04:35:41;;;;;;;0.00;0.00;;;15.10;91.70;;;;;;4208463;28;20510;-59
2022/11/17 04:38:22;;;;;;;0.00;0.00;;;15.20;91.80;;;;;;4192452;28;20055;-59
2022/11/17 04:44:07;;;;;;;0.00;0.00;;;15.30;91.60;;;;;;4188232;28;20202;-60
2022/11/17 04:46:47;;;;;;;0.00;0.00;;;15.30;91.50;;;;;;4191528;28;20179;-60
2022/11/17 04:49:29;;;;;;;0.00;0.00;;;15.30;91.50;;;;;;4191767;28;20066;-60
2022/11/17 04:52:10;;;;;;;0.00;0.00;;;15.40;91.40;;;;;;4192680;28;20067;-60
2022/11/17 04:54:51;;;;;;;0.10;0.10;;;15.40;91.30;;;;;;4195031;27;20622;-59
2022/11/17 04:57:33;;;;;;;0.00;0.00;;;15.50;91.20;;;;;;4198546;28;20059;-60
2022/11/17 05:00:15;;;;;;;0.00;0.00;;;15.50;91.10;;;;;;4207083;28;20110;-59
2022/11/17 05:02:57;;;;;;;0.00;0.00;;;15.50;91.00;;;;;;4175006;28;20134;-60
2022/11/17 05:05:37;;;;;;;0.00;0.00;;;15.60;90.90;;;;;;4158468;28;20583;-60
2022/11/17 05:08:18;;;;;;;0.00;0.00;;;15.50;90.90;;;;;;4158738;28;20048;-60
2022/11/17 05:14:00;;;;;;;0.35;0.35;;;15.50;90.90;;;;;;4191787;28;20047;-60
2022/11/17 05:19:44;;;;;;;0.00;0.00;;;15.50;90.90;;;;;;4194792;28;20395;-60
2022/11/17 05:25:22;;;;;;;0.00;0.00;;;15.50;91.00;;;;;;4193969;28;20055;-60
2022/11/17 05:28:03;;;;;;;0.13;0.13;;;15.50;90.90;;;;;;4194541;28;20077;-59
2022/11/17 05:30:45;;;;;;;0.00;0.00;;;15.60;90.90;;;;;;4193655;28;20074;-60
2022/11/17 05:33:26;;;;;;;0.00;0.00;;;15.60;90.70;;;;;;4193221;28;20059;-60
2022/11/17 05:36:07;;;;;;;0.00;0.00;;;15.60;90.70;;;;;;4193615;28;20048;-59
2022/11/17 05:38:49;;;;;;;0.13;0.13;;;15.60;90.70;;;;;;4208873;28;20097;-60
2022/11/17 05:41:30;;;;;;;0.15;0.15;;;15.60;90.70;;;;;;4202417;28;20490;-60
2022/11/17 05:44:11;;;;;;;0.15;0.15;;;15.50;91.10;;;;;;4194758;28;20178;-60
2022/11/17 05:46:56;;;;;;;0.00;0.00;;;15.50;90.80;;;;;;4194216;28;20060;-59
2022/11/17 05:49:37;;;;;;;0.00;0.00;;;15.50;90.80;;;;;;4177711;28;20071;-60
2022/11/17 05:52:17;;;;;;;0.37;0.37;;;15.50;90.80;;;;;;4176989;28;20052;-60
2022/11/17 05:54:58;;;;;;;0.00;0.00;;;15.40;90.90;;;;;;4177772;28;20291;-60
2022/11/17 05:57:39;;;;;;;0.00;0.00;;;15.40;90.90;;;;;;4190427;28;20363;-60
2022/11/17 06:00:20;;;;;;;0.20;0.20;;;15.50;90.80;;;;;;4202884;28;20063;-60
2022/11/17 06:03:07;;;;;;;0.00;0.00;;;15.50;90.70;;;;;;4194057;28;20313;-60
2022/11/17 06:05:48;;;;;;;0.00;0.00;;;15.50;90.60;;;;;;4198026;28;20126;-61
2022/11/17 06:08:30;;;;;;;0.00;0.00;;;15.50;90.50;;;;;;4210508;28;20133;-60
2022/11/17 06:11:11;;;;;;;0.00;0.00;;;15.60;90.50;;;;;;4204667;28;20151;-60
2022/11/17 06:13:51;;;;;;;;;;;15.60;90.40;;;;;;4193262;28;20047;-60
2022/11/17 06:16:35;;;;;;;0.00;0.00;;;15.70;90.30;;;;;;4202033;28;19932;-61
2022/11/17 06:19:21;;;;;;;0.00;0.00;;;15.70;90.10;;;;;;4210128;28;20493;-60
2022/11/17 06:22:01;;;;;;;0.00;0.00;;;15.70;90.10;;;;;;4210506;28;20181;-60
2022/11/17 06:24:59;;;;;;;0.00;0.00;;;15.70;90.10;;;;;;4209248;28;20153;-60
2022/11/17 06:27:42;;;;;;;0.08;0.08;;;15.70;90.10;;;;;;4207441;28;20125;-60
2022/11/17 06:30:23;;;;;;;0.00;0.00;;;15.60;90.10;;;;;;4210229;28;20478;-61
2022/11/17 06:33:05;;;;;;;0.00;0.00;;;15.60;90.20;;;;;;4206820;28;20055;-60
2022/11/17 06:35:49;;;;;;;0.00;0.00;;;15.60;90.20;;;;;;4193441;28;20060;-60
2022/11/17 06:38:32;;;;;;;0.38;0.38;;;15.50;90.40;;;;;;4192334;28;20159;-60
2022/11/17 06:41:13;;;;;;;0.00;0.00;;;15.60;91.00;;;;;;4192832;28;20056;-59
2022/11/17 06:43:54;;;;;;;0.20;0.20;;;15.60;90.80;;;;;;4199235;27;20114;-60
2022/11/17 06:46:37;;;;;;;0.00;0.00;;;15.70;90.30;;;;;;4191562;28;20089;-60
2022/11/17 06:49:18;;;;;;;0.00;0.00;;;15.70;90.60;;;;;;4193566;28;20101;-59
2022/11/17 06:52:01;;;;;;;0.00;0.00;;;15.70;90.10;;;;;;4193522;28;20870;-60
2022/11/17 06:54:41;;;;;;;0.00;0.00;;;15.70;90.10;;;;;;4192490;28;20749;-60
2022/11/17 06:57:22;;;;;;;0.15;0.15;;;15.60;90.10;;;;;;4176584;28;20056;-61
2022/11/17 07:00:05;;;;;;;0.00;0.00;;;15.60;90.10;;;;;;4160514;28;20072;-60
2022/11/17 07:02:46;;;;;;;0.00;0.00;;;15.50;90.10;;;;;;4160078;28;20056;-60
2022/11/17 07:05:27;;;;;;;0.80;0.30;;;15.50;90.20;;;;;;4207861;28;20058;-60
2022/11/17 07:08:09;;;;;;;0.00;0.00;;;15.50;90.20;;;;;;4197396;27;20051;-60
2022/11/17 07:10:53;;;;;;;1.75;0.75;;;15.40;90.30;;;;;;4192336;28;20178;-60
2022/11/17 07:13:34;;;;;;;0.00;0.00;;;15.40;90.30;;;;;;4192728;28;20051;-63
2022/11/17 07:16:18;;;;;;;0.00;0.00;;;15.30;90.40;;;;;;4196518;28;20051;-60
2022/11/17 07:19:03;;;;;;;0.00;0.00;;;15.30;90.10;;;;;;4192195;28;20538;-61
2022/11/17 07:21:43;;;;;;;0.03;0.03;;;15.20;90.30;;;;;;4192701;28;20721;-62
2022/11/17 07:24:26;;;;;;;0.00;0.00;;;15.20;90.30;;;;;;4192509;28;20063;-61
2022/11/17 07:27:06;;;;;;;0.70;0.68;;;15.10;90.70;;;;;;4208963;28;20399;-60
2022/11/17 07:29:47;;;;;;;0.05;0.05;;;15.10;91.50;;;;;;4192731;28;20051;-60
2022/11/17 07:32:30;;;;;;;0.00;0.00;;;15.00;91.30;;;;;;4192524;28;20141;-61
2022/11/17 07:35:11;;;;;;;0.30;0.30;;;15.10;91.50;;;;;;4192270;28;20117;-61
2022/11/17 07:37:52;;;;;;;0.82;0.80;;;15.10;91.50;;;;;;4191085;28;20055;-61
2022/11/17 07:40:34;;;;;;;0.00;0.00;;;15.20;91.30;;;;;;4192530;28;20051;-60
2022/11/17 07:43:15;;;;;;;0.90;0.80;;;15.20;90.90;;;;;;4191616;28;20060;-61
2022/11/17 07:45:55;;;;;;;0.25;0.25;;;15.20;91.10;;;;;;4192330;28;20063;-60
2022/11/17 07:48:36;;;;;;;0.28;0.28;;;15.30;90.60;;;;;;4191741;28;20059;-61
2022/11/17 07:51:18;;;;;;;0.85;0.85;;;15.30;90.50;;;;;;4182246;28;20051;-61
2022/11/17 07:53:58;;;;;;;0.30;0.30;;;15.40;90.40;;;;;;4197879;28;20046;-59
2022/11/17 07:56:41;;;;;;;0.00;0.00;;;15.40;90.30;;;;;;4208125;28;20395;-59
2022/11/17 07:59:22;;;;;;;0.03;0.03;;;15.40;90.20;;;;;;4209267;28;20109;-59
2022/11/17 08:02:03;;;;;;;0.00;0.00;;;15.40;90.00;;;;;;4208850;28;20130;-59
2022/11/17 08:04:44;;;;;;;0.00;0.00;;;15.40;90.00;;;;;;4176484;28;20523;-60
2022/11/17 08:07:25;;;;;;;0.00;0.00;;;15.40;89.90;;;;;;4174934;28;20051;-60
2022/11/17 08:10:07;;;;;;;0.13;0.13;;;15.40;89.90;;;;;;4159476;28;20039;-60
2022/11/17 08:12:52;;;;;;;;;;;15.40;89.90;;;;;;4173021;28;20175;-60
2022/11/17 08:15:32;;;;;;;0.10;0.10;;;15.30;89.20;;;;;;4160822;28;20008;-60
2022/11/17 08:18:14;;;;;;;1.95;0.65;;;15.30;89.40;;;;;;4175127;28;20515;-60
2022/11/17 08:21:02;;;;;;;0.00;0.00;;;15.30;89.80;;;;;;4175576;28;20198;-60
2022/11/17 08:23:43;;;;;;;1.88;1.02;;;15.20;89.70;;;;;;4181848;28;20443;-60
2022/11/17 08:26:24;;;;;;;0.00;0.00;;;15.10;89.90;;;;;;4181954;28;20131;-59
2022/11/17 08:29:06;;;;;;;1.55;1.45;;;15.20;90.10;;;;;;4190336;28;20079;-59
2022/11/17 08:31:47;;;;;;;0.00;0.00;;;15.30;90.10;;;;;;4190818;28;20101;-60
2022/11/17 08:34:28;;;;;;;0.00;0.00;;;15.30;90.10;;;;;;4192903;28;20624;-60
2022/11/17 08:37:09;;;;;;;0.00;0.00;;;15.30;90.00;;;;;;4175858;28;20174;-60
2022/11/17 08:39:50;;;;;;;0.00;0.00;;;15.30;89.90;;;;;;4175497;28;20052;-61
2022/11/17 08:42:31;;;;;;;0.10;0.10;;;15.30;89.90;;;;;;4195784;28;20122;-61
2022/11/17 08:45:13;;;;;;;0.00;0.00;;;15.30;90.00;;;;;;4191502;28;20060;-60
2022/11/17 08:47:56;;;;;;;0.00;0.00;;;15.30;90.30;;;;;;4192073;28;20474;-59
2022/11/17 08:50:36;;;;;;;0.20;0.20;;;15.30;90.40;;;;;;4194299;28;20403;-59
2022/11/17 08:53:20;;;;;;;0.00;0.00;;;15.30;90.40;;;;;;4195265;28;20536;-60
2022/11/17 08:56:01;;;;;;;0.00;0.00;;;15.20;90.10;;;;;;4194273;28;20121;-60
2022/11/17 08:58:43;;;;;;;0.03;0.03;;;15.20;90.20;;;;;;4194268;28;20181;-60
2022/11/17 09:01:25;;;;;;;0.00;0.00;;;15.20;90.30;;;;;;4194061;28;20106;-60
2022/11/17 09:04:07;;;;;;;0.00;0.00;;;15.10;90.20;;;;;;4194168;28;20050;-60
2022/11/17 09:06:48;;;;;;;0.00;0.00;;;15.10;90.40;;;;;;4194563;28;20051;-60
2022/11/17 09:09:31;;;;;;;0.00;0.00;;;15.10;90.40;;;;;;4194717;28;20147;-59
2022/11/17 09:12:12;;;;;;;0.32;0.32;;;15.00;90.90;;;;;;4194952;28;20052;-59
2022/11/17 09:14:52;;;;;;;0.00;0.00;;;15.10;90.60;;;;;;4194875;28;20052;-59
2022/11/17 09:17:35;;;;;;;0.17;0.17;;;15.10;90.60;;;;;;4194917;28;20453;-59
2022/11/17 09:20:17;;;;;;;0.00;0.00;;;15.20;90.50;;;;;;4194740;28;20246;-60
2022/11/17 09:23:01;;;;;;;0.00;0.00;;;15.30;90.40;;;;;;4194784;28;20117;-59
2022/11/17 09:25:41;;;;;;;0.00;0.00;;;15.30;90.30;;;;;;4194479;28;20059;-59
2022/11/17 09:28:24;;;;;;;0.00;0.00;;;15.40;90.10;;;;;;4194608;28;20055;-59
2022/11/17 09:31:10;;;;;;;0.10;0.10;;;15.50;90.00;;;;;;4194170;28;20043;-59
2022/11/17 09:33:53;;;;;;;0.05;0.05;;;15.50;89.70;;;;;;4194544;28;20094;-59
2022/11/17 09:36:35;;;;;;;0.00;0.00;;;15.50;89.50;;;;;;4177608;28;20495;-59
2022/11/17 09:39:17;;;;;;;0.00;0.00;;;15.50;89.40;;;;;;4177819;28;20056;-60
2022/11/17 09:41:58;;;;;;;0.00;0.00;;;15.50;89.40;;;;;;4178046;28;20047;-60
2022/11/17 09:44:46;;;;;;;0.00;0.00;;;15.40;89.60;;;;;;4178322;28;20137;-59
2022/11/17 09:47:40;;;;;;;0.00;0.00;;;15.50;89.80;;;;;;4185393;28;20182;-59
2022/11/17 09:50:26;;;;;;;0.00;0.00;;;15.50;89.60;;;;;;4178596;27;20496;-59
2022/11/17 09:53:14;;;;;;;1.02;0.95;;;15.50;89.40;;;;;;4177279;28;20147;-59
2022/11/17 09:55:58;;;;;;;3.50;1.65;;;15.50;89.30;;;;;;4181677;28;20118;-59
2022/11/17 09:58:44;;;;;;;0.00;0.00;;;15.50;89.20;;;;;;4210246;28;20055;-59
2022/11/17 10:01:28;;;;;;;0.38;0.38;;;15.60;89.00;;;;;;4209357;28;20055;-59
2022/11/17 10:04:11;;;;;;;0.00;0.00;;;15.60;88.80;;;;;;4208667;28;20059;-59
2022/11/17 10:06:54;;;;;;;0.00;0.00;;;15.60;88.70;;;;;;4202707;28;20063;-60
2022/11/17 10:09:38;;;;;;;0.00;0.00;;;15.60;88.70;;;;;;4192953;28;20407;-60
2022/11/17 10:12:22;;;;;;;6.30;2.00;;;15.60;88.70;;;;;;4194029;28;20047;-59
2022/11/17 10:15:24;;;;;;;0.47;0.47;;;15.50;88.70;;;;;;4193785;28;20126;-60
2022/11/17 10:18:12;;;;;;;1.00;0.90;;;15.50;88.70;;;;;;4177318;28;20048;-60
2022/11/17 10:20:53;;;;;;;0.00;0.00;;;15.50;88.90;;;;;;4177557;28;20468;-57
2022/11/17 10:23:38;;;;;;;0.00;0.00;;;15.40;89.10;;;;;;4177324;28;20495;-58
2022/11/17 10:26:26;;;;;;;0.00;0.00;;;15.40;89.30;;;;;;4196539;28;20185;-59
2022/11/17 10:29:11;;;;;;;0.00;0.00;;;15.30;89.40;;;;;;4210235;28;20055;-59
2022/11/17 10:31:52;;;;;;;0.00;0.00;;;15.30;89.50;;;;;;4210526;28;20050;-59
2022/11/17 10:34:35;;;;;;;0.00;0.00;;;15.20;89.60;;;;;;4210596;28;20067;-59
2022/11/17 10:37:30;;;;;;;0.00;0.00;;;15.10;89.70;;;;;;4176624;28;20044;-57
2022/11/17 10:40:19;;;;;;;0.00;0.00;;;15.10;89.70;;;;;;4177199;28;20052;-60
2022/11/17 10:43:20;;;;;;;0.00;0.00;;;15.10;90.00;;;;;;4192335;27;20186;-57
2022/11/17 10:46:05;;;;;;;0.10;0.10;;;15.00;90.20;;;;;;4209878;27;20582;-59
2022/11/17 10:48:55;;;;;;;0.00;0.00;;;15.00;90.20;;;;;;4208038;28;20059;-58
2022/11/17 10:51:36;;;;;;;0.00;0.00;;;15.00;90.30;;;;;;4208228;27;20133;-58
2022/11/17 10:54:21;;;;;;;0.00;0.00;;;14.90;90.30;;;;;;4210082;27;20098;-58
2022/11/17 10:57:07;;;;;;;0.00;0.00;;;14.90;90.40;;;;;;4190653;28;20047;-58
2022/11/17 10:59:51;;;;;;;0.10;0.10;;;14.90;90.40;;;;;;4193224;28;20109;-59
2022/11/17 11:02:38;;;;;;;0.00;0.00;;;14.90;90.40;;;;;;4195670;27;20148;-59
2022/11/17 11:05:20;;;;;;;0.00;0.00;;;14.80;90.40;;;;;;4193147;28;20190;-56
2022/11/17 11:08:18;;;;;;;0.00;0.00;;;14.80;90.50;;;;;;4199879;28;20513;-57
2022/11/17 11:11:00;;;;;;;1.77;1.65;;;14.80;90.30;;;;;;4208038;28;20059;-58
2022/11/17 11:13:48;;;;;;;0.00;0.00;;;14.70;90.50;;;;;;4198733;28;20097;-58
2022/11/17 11:16:30;;;;;;;0.00;0.00;;;14.70;90.10;;;;;;4193308;28;20589;-59
2022/11/17 11:19:14;;;;;;;0.00;0.00;;;14.70;90.20;;;;;;4192738;28;20802;-59
2022/11/17 11:22:23;;;;;;;0.17;0.17;;;14.60;90.00;;;;;;4176461;28;20138;-59
2022/11/17 11:25:30;;;;;;;0.00;0.00;;;14.60;90.10;;;;;;4196085;27;20062;-59
2022/11/17 11:28:20;;;;;;;0.00;0.00;;;14.60;90.40;;;;;;4188504;28;20195;-58
2022/11/17 11:31:14;;;;;;;0.00;0.00;;;14.50;90.50;;;;;;4192418;28;20044;-59
2022/11/17 11:34:06;;;;;;;0.00;0.00;;;14.50;90.70;;;;;;4192444;28;20047;-58
2022/11/17 11:36:53;;;;;;;0.00;0.00;;;14.40;90.70;;;;;;4192014;28;20055;-58
2022/11/17 11:39:44;;;;;;;0.00;0.00;;;14.40;90.70;;;;;;4175999;28;20078;-59
2022/11/17 11:42:41;;;;;;;0.00;0.00;;;14.40;90.70;;;;;;4176298;28;20094;-59
2022/11/17 11:45:44;;;;;;;0.00;0.00;;;14.30;90.80;;;;;;4175573;28;20060;-59
2022/11/17 11:48:30;;;;;;;2.72;1.38;;;14.30;90.90;;;;;;4176518;28;20160;-58
2022/11/17 11:51:15;;;;;;;0.00;0.00;;;14.30;90.90;;;;;;4175881;28;20486;-58
2022/11/17 11:54:01;;;;;;;0.00;0.00;;;14.30;91.30;;;;;;4174985;28;20134;-59
2022/11/17 11:56:44;;;;;;;0.10;0.10;;;14.40;91.30;;;;;;4178384;28;20052;-57
2022/11/17 11:59:40;;;;;;;0.65;0.65;;;14.50;91.60;;;;;;4189677;28;20094;-57
2022/11/17 12:02:29;;;;;;;0.00;0.00;;;14.60;91.10;;;;;;4191856;28;20063;-59
2022/11/17 12:05:21;;;;;;;0.00;0.00;;;14.70;91.00;;;;;;4192336;28;20201;-58
2022/11/17 12:08:11;;;;;;;0.00;0.00;;;14.70;90.90;;;;;;4177628;28;20062;-58
2022/11/17 12:10:57;;;;;;;0.00;0.00;;;14.70;90.80;;;;;;4175810;28;20056;-58
2022/11/17 12:13:39;;;;;;;0.20;0.20;;;14.70;90.70;;;;;;4175639;28;20114;-57
2022/11/17 12:16:31;;;;;;;0.00;0.00;;;14.80;90.70;;;;;;4175847;28;20560;-57
2022/11/17 12:19:58;;;;;;;1.92;1.08;;;14.80;90.60;;;;;;4175070;28;20052;-54
2022/11/17 12:23:08;;;;;;;0.00;0.00;;;14.80;90.60;;;;;;4139998;28;20640;-58
2022/11/17 12:25:52;;;;;;;0.00;0.00;;;14.90;90.60;;;;;;4164272;28;20086;-57
2022/11/17 12:28:36;;;;;;;0.15;0.15;;;14.90;90.50;;;;;;4206954;27;20517;-55
2022/11/17 12:31:42;;;;;;;0.10;0.10;;;15.00;90.20;;;;;;4208890;27;20047;-56
2022/11/17 12:34:29;;;;;;;0.00;0.00;;;15.00;90.10;;;;;;4207631;27;20396;-57
2022/11/17 12:37:25;;;;;;;0.00;0.00;;;15.00;90.00;;;;;;4208462;27;20043;-57
2022/11/17 12:40:08;;;;;;;0.00;0.00;;;15.00;89.90;;;;;;4175119;28;20056;-57
2022/11/17 12:43:20;;;;;;;0.03;0.03;;;15.00;90.00;;;;;;4175589;28;20060;-58
2022/11/17 12:46:18;;;;;;;0.00;0.00;;;15.00;90.00;;;;;;4179828;28;20068;-58
2022/11/17 12:49:06;;;;;;;0.00;0.00;;;15.10;90.00;;;;;;4191618;28;20067;-57
2022/11/17 12:51:55;;;;;;;0.65;0.65;;;15.20;90.00;;;;;;4191175;28;20052;-55
2022/11/17 12:54:43;;;;;;;0.52;0.52;;;15.20;89.70;;;;;;4198500;28;21267;-54
2022/11/17 12:57:31;;;;;;;0.00;0.00;;;15.20;89.60;;;;;;4207181;28;20077;-56
2022/11/17 13:00:19;;;;;;;0.05;0.05;;;15.20;90.10;;;;;;4175580;28;20052;-58
2022/11/17 13:03:09;;;;;;;0.00;0.00;;;15.30;89.50;;;;;;4191763;28;20161;-58
2022/11/17 13:06:06;;;;;;;0.05;0.05;;;15.20;89.30;;;;;;4191878;28;20487;-55
2022/11/17 13:09:11;;;;;;;0.47;0.43;;;15.20;89.40;;;;;;4190157;28;20171;-57
2022/11/17 13:11:59;;;;;;;0.00;0.00;;;15.20;89.50;;;;;;4191702;28;20047;-56
2022/11/17 13:14:54;;;;;;;0.00;0.00;;;15.10;89.70;;;;;;4191746;28;20162;-58
2022/11/17 13:17:41;;;;;;;0.10;0.10;;;15.10;90.00;;;;;;4191269;28;20105;-57
2022/11/17 13:20:25;;;;;;;0.00;0.00;;;15.10;90.00;;;;;;4175200;28;20052;-58
2022/11/17 13:23:14;;;;;;;0.00;0.00;;;15.10;90.00;;;;;;4175242;28;20557;-58
2022/11/17 13:26:19;;;;;;;0.55;0.55;;;15.10;90.00;;;;;;4179651;28;20051;-58
2022/11/17 13:29:05;;;;;;;0.00;0.00;;;15.10;90.00;;;;;;4191130;28;20150;-57
2022/11/17 13:31:48;;;;;;;0.00;0.00;;;15.20;90.00;;;;;;4175308;28;20052;-57
2022/11/17 13:34:30;;;;;;;0.00;0.00;;;15.10;90.00;;;;;;4175030;28;20138;-56
2022/11/17 13:37:16;;;;;;;0.00;0.00;;;15.00;90.00;;;;;;4178331;28;20056;-57
2022/11/17 13:40:00;;;;;;;0.00;0.00;;;15.10;90.10;;;;;;4188646;28;20067;-57
2022/11/17 13:42:41;;;;;;;0.82;0.82;;;15.00;90.10;;;;;;4194531;28;20094;-58
2022/11/17 13:45:22;;;;;;;0.35;0.35;;;15.00;90.20;;;;;;4194859;28;20101;-57
2022/11/17 13:48:04;;;;;;;0.00;0.00;;;15.00;90.50;;;;;;4199572;28;20047;-58
2022/11/17 13:50:45;;;;;;;5.35;2.40;;;14.90;90.30;;;;;;4189408;28;20060;-57
2022/11/17 13:53:26;;;;;;;6.38;1.05;;;14.90;90.40;;;;;;4184310;28;20209;-58
2022/11/17 13:56:21;;;;;;;0.32;0.32;;;14.80;90.40;;;;;;4194030;28;20060;-59
2022/11/17 13:59:06;;;;;;;0.00;0.00;;;14.80;90.50;;;;;;4193841;28;20059;-58
2022/11/17 14:01:47;;;;;;;0.10;0.10;;;14.80;90.60;;;;;;4193448;28;20517;-57
2022/11/17 14:04:29;;;;;;;0.05;0.05;;;14.70;90.70;;;;;;4193796;28;20822;-59
2022/11/17 14:07:13;;;;;;;0.10;0.10;;;14.70;90.70;;;;;;4194392;28;20388;-58
2022/11/17 14:10:11;;;;;;;0.05;0.05;;;14.70;90.80;;;;;;4209817;28;20101;-59
2022/11/17 14:12:54;;;;;;;0.35;0.35;;;14.70;90.90;;;;;;4210665;28;20046;-58
2022/11/17 14:15:37;;;;;;;0.00;0.00;;;14.60;90.90;;;;;;4210711;28;20112;-59
2022/11/17 14:18:26;;;;;;;0.52;0.52;;;14.60;91.00;;;;;;4199199;28;20055;-59
2022/11/17 14:21:14;;;;;;;0.15;0.15;;;14.60;91.10;;;;;;4194211;28;20072;-59
2022/11/17 14:24:04;;;;;;;2.10;2.00;;;14.50;91.30;;;;;;4193752;28;20403;-57
2022/11/17 14:26:45;;;;;;;0.75;0.75;;;14.50;91.10;;;;;;4193284;28;20106;-58
2022/11/17 14:29:28;;;;;;;0.00;0.00;;;14.50;91.10;;;;;;4176952;28;20139;-59
2022/11/17 14:32:08;;;;;;;0.00;0.00;;;14.50;91.10;;;;;;4193105;28;20137;-58
2022/11/17 14:34:49;;;;;;;0.00;0.00;;;14.40;91.10;;;;;;4187536;28;20071;-59
2022/11/17 14:37:32;;;;;;;0.25;0.25;;;14.40;91.00;;;;;;4193860;28;20121;-57
2022/11/17 14:40:14;;;;;;;0.88;0.88;;;14.40;91.30;;;;;;4193869;28;20044;-59
2022/11/17 14:42:55;;;;;;;0.25;0.25;;;14.40;91.60;;;;;;4192768;28;20210;-58
2022/11/17 14:45:36;;;;;;;0.05;0.05;;;14.60;91.50;;;;;;4193699;28;20051;-58
2022/11/17 14:48:18;;;;;;;1.10;1.10;;;14.80;91.20;;;;;;4193531;28;20109;-57
2022/11/17 14:51:00;;;;;;;1.58;1.48;;;15.10;90.70;;;;;;4179165;28;20059;-56
2022/11/17 14:53:43;;;;;;;0.22;0.22;;;15.50;90.10;;;;;;4184569;28;20517;-58